Time;durP1;ratioP1;P1;durP2;ratioP2;P2;SDS_P1;SDS_P2;PMS_P1;PMS_P2;Temp;Humidity;BMP_temperature;BMP_pressure;BME280_temperature;BME280_humidity;BME280_pressure;Samples;Min_cycle;Max_cycle;Signal;HPM_P1;HPM_P2
2022/12/27 00:00:31;;;;;;;12.43;2.65;;;;;;;;;;5046923;28;20032;-74
2022/12/27 00:02:56;;;;;;;12.88;2.85;;;;;;;;;;5049308;28;20607;-73
2022/12/27 00:05:22;;;;;;;14.32;3.55;;;;;;;;;;5031638;28;20021;-73
2022/12/27 00:07:47;;;;;;;11.13;2.70;;;;;;;;;;5028842;28;20035;-73
2022/12/27 00:10:12;;;;;;;12.68;2.85;;;;;;;;;;5028328;28;20477;-74
2022/12/27 00:12:37;;;;;;;12.00;2.60;;;;;;;;;;5045995;28;20040;-75
2022/12/27 00:15:03;;;;;;;14.32;3.05;;;;;;;;;;5045001;28;20640;-73
2022/12/27 00:17:28;;;;;;;9.63;2.38;;;;;;;;;;5042611;28;20036;-74
2022/12/27 00:19:54;;;;;;;17.20;3.22;;;;;;;;;;5045190;28;20021;-75
2022/12/27 00:22:19;;;;;;;13.57;2.72;;;;;;;;;;5045833;28;20104;-73
2022/12/27 00:24:44;;;;;;;9.55;3.25;;;;;;;;;;5051308;28;20028;-74
2022/12/27 00:27:09;;;;;;;6.70;2.08;;;;;;;;;;5047913;28;20021;-76
2022/12/27 00:29:34;;;;;;;10.80;2.92;;;;;;;;;;5028338;28;20080;-74
2022/12/27 00:31:59;;;;;;;22.10;4.28;;;;;;;;;;5043114;28;20393;-74
2022/12/27 00:34:25;;;;;;;18.57;2.93;;;;;;;;;;5045278;28;20064;-74
2022/12/27 00:36:50;;;;;;;15.30;3.03;;;;;;;;;;5043624;28;20321;-73
2022/12/27 00:39:15;;;;;;;9.13;2.25;;;;;;;;;;5049119;28;20017;-73
2022/12/27 00:41:40;;;;;;;10.88;2.00;;;;;;;;;;5052930;28;20013;-75
2022/12/27 00:44:05;;;;;;;8.35;1.98;;;;;;;;;;5052139;28;20025;-75
2022/12/27 00:46:31;;;;;;;15.80;2.75;;;;;;;;;;5051310;28;20049;-74
2022/12/27 00:48:57;;;;;;;9.15;2.42;;;;;;;;;;5050170;28;20086;-75
2022/12/27 00:51:23;;;;;;;7.53;2.22;;;;;;;;;;5051108;28;20393;-74
2022/12/27 00:53:49;;;;;;;13.20;2.38;;;;;;;;;;5050766;28;20051;-73
2022/12/27 00:56:15;;;;;;;11.63;3.75;;;;;;;;;;5033683;28;20028;-74
2022/12/27 00:58:40;;;;;;;12.80;2.65;;;;;;;;;;5051653;28;20523;-73
2022/12/27 01:01:07;;;;;;;7.72;1.83;;;;;;;;;;5052221;28;20029;-74
2022/12/27 01:03:32;;;;;;;13.55;2.72;;;;;;;;;;5051405;28;20013;-74
2022/12/27 01:06:02;;;;;;;12.70;2.08;;;;;;;;;;5050048;28;20031;-73
2022/12/27 01:08:28;;;;;;;23.38;2.50;;;;;;;;;;5052176;28;20175;-75
2022/12/27 01:10:54;;;;;;;9.82;1.77;;;;;;;;;;5049275;28;20028;-74
2022/12/27 01:13:19;;;;;;;7.60;1.97;;;;;;;;;;5039964;28;20453;-74
2022/12/27 01:15:44;;;;;;;7.17;2.27;;;;;;;;;;5051469;28;20275;-74
2022/12/27 01:18:09;;;;;;;14.65;2.40;;;;;;;;;;5051928;28;20696;-74
2022/12/27 01:20:36;;;;;;;8.77;1.83;;;;;;;;;;5050203;28;20013;-74
2022/12/27 01:23:01;;;;;;;17.13;2.53;;;;;;;;;;5046406;28;20416;-72
2022/12/27 01:25:26;;;;;;;11.25;2.10;;;;;;;;;;5051941;28;20017;-74
2022/12/27 01:27:52;;;;;;;20.38;2.05;;;;;;;;;;5051755;28;20009;-74
2022/12/27 01:30:17;;;;;;;9.20;2.22;;;;;;;;;;5049687;28;20108;-74
2022/12/27 01:32:42;;;;;;;18.92;2.67;;;;;;;;;;5050029;28;20449;-73
2022/12/27 01:35:08;;;;;;;6.35;1.88;;;;;;;;;;5051612;28;20033;-74
2022/12/27 01:37:33;;;;;;;11.02;2.08;;;;;;;;;;5049995;28;20029;-74
2022/12/27 01:39:58;;;;;;;26.80;2.08;;;;;;;;;;5051032;28;20420;-74
2022/12/27 01:45:21;;;;;;;9.23;1.77;;;;;;;;;;5048992;28;20036;-74
2022/12/27 01:48:02;;;;;;;9.25;1.75;;;;;;;;;;5048031;28;20017;-74
2022/12/27 01:50:31;;;;;;;13.27;2.03;;;;;;;;;;5048639;28;20021;-74
2022/12/27 01:52:59;;;;;;;10.25;1.95;;;;;;;;;;5048579;28;20021;-73
2022/12/27 01:55:36;;;;;;;7.68;2.13;;;;;;;;;;5050348;28;20427;-74
2022/12/27 01:58:20;;;;;;;12.00;1.60;;;;;;;;;;5048768;28;20016;-75
2022/12/27 02:00:47;;;;;;;5.10;1.50;;;;;;;;;;5049241;28;20025;-74
2022/12/27 02:03:14;;;;;;;14.50;2.72;;;;;;;;;;5050570;28;20025;-74
2022/12/27 02:05:40;;;;;;;11.18;1.80;;;;;;;;;;5047351;28;20035;-74
2022/12/27 02:08:21;;;;;;;5.15;1.90;;;;;;;;;;5048856;28;20100;-74
2022/12/27 02:10:47;;;;;;;5.82;1.73;;;;;;;;;;5047917;28;20100;-74
2022/12/27 02:13:12;;;;;;;12.20;1.88;;;;;;;;;;5049010;28;20561;-74
2022/12/27 02:15:37;;;;;;;10.63;2.33;;;;;;;;;;5046650;28;20473;-73
2022/12/27 02:18:03;;;;;;;7.97;1.73;;;;;;;;;;5032186;28;20376;-74
2022/12/27 02:20:33;;;;;;;10.55;1.70;;;;;;;;;;5049961;28;20284;-74
2022/12/27 02:25:39;;;;;;;6.47;1.85;;;;;;;;;;5195139;23;20050;-71
2022/12/27 02:28:23;;;;;;;8.80;1.77;;;;;;;;;;5006566;28;20482;-70
2022/12/27 02:30:51;;;;;;;10.60;1.67;;;;;;;;;;5009119;28;20053;-67
2022/12/27 02:33:22;;;;;;;11.20;2.30;;;;;;;;;;5007791;28;20473;-67
2022/12/27 02:35:51;;;;;;;15.25;1.80;;;;;;;;;;5009727;28;20465;-67
2022/12/27 02:38:19;;;;;;;8.98;1.85;;;;;;;;;;5005135;28;20042;-66
2022/12/27 02:55:02;;;;;;;10.18;1.98;;;;;;;;;;5008410;28;20064;-66
2022/12/27 02:57:32;;;;;;;10.60;2.72;;;;;;;;;;4990911;28;20109;-65
2022/12/27 03:08:52;;;;;;;12.80;3.50;;;;;;;;;;5009196;28;20029;-66
2022/12/27 03:16:59;;;;;;;10.20;2.28;;;;;;;;;;5009398;28;20035;-65
2022/12/27 03:27:42;;;;;;;13.07;2.47;;;;;;;;;;5007858;28;20088;-65
2022/12/27 03:33:12;;;;;;;12.23;1.80;;;;;;;;;;5005729;28;20037;-65
2022/12/27 03:35:40;;;;;;;10.43;2.50;;;;;;;;;;5007864;28;20030;-66
2022/12/27 03:38:07;;;;;;;16.55;3.25;;;;;;;;;;5008382;28;20026;-65
2022/12/27 03:43:35;;;;;;;6.07;1.77;;;;;;;;;;5007661;28;20025;-66
2022/12/27 03:49:13;;;;;;;8.15;1.40;;;;;;;;;;5008730;28;20040;-66
2022/12/27 03:51:40;;;;;;;7.10;1.80;;;;;;;;;;4963889;28;20057;-66
2022/12/27 03:54:15;;;;;;;7.80;2.65;;;;;;;;;;5007566;28;20180;-66
2022/12/27 03:56:41;;;;;;;12.65;2.25;;;;;;;;;;5003780;28;20425;-66
2022/12/27 03:59:07;;;;;;;4.20;1.33;;;;;;;;;;5007048;28;20029;-66
2022/12/27 04:01:32;;;;;;;14.95;1.88;;;;;;;;;;5007913;28;20025;-68
2022/12/27 04:03:58;;;;;;;5.25;1.25;;;;;;;;;;5004728;28;20018;-69
2022/12/27 04:06:23;;;;;;;9.23;1.90;;;;;;;;;;5008467;28;20037;-66
2022/12/27 04:36:07;;;;;;;7.47;1.50;;;;;;;;;;5008530;28;20037;-68
2022/12/27 04:38:33;;;;;;;15.13;2.40;;;;;;;;;;5008946;28;20026;-68
2022/12/27 04:55:04;;;;;;;10.93;2.55;;;;;;;;;;5006905;28;20363;-68
2022/12/27 04:57:29;;;;;;;13.60;1.77;;;;;;;;;;5005644;28;20025;-67
2022/12/27 05:02:38;;;;;;;15.25;2.53;;;;;;;;;;5006179;28;20410;-68
2022/12/27 05:05:04;;;;;;;13.18;2.20;;;;;;;;;;5003557;28;20023;-68
2022/12/27 05:15:41;;;;;;;14.75;2.22;;;;;;;;;;5004175;28;20033;-68
2022/12/27 05:18:06;;;;;;;17.60;2.55;;;;;;;;;;5006639;28;20025;-68
2022/12/27 05:20:34;;;;;;;7.72;1.90;;;;;;;;;;5006408;28;20022;-68
2022/12/27 05:25:44;;;;;;;20.42;2.10;;;;;;;;;;5008604;28;20056;-68
2022/12/27 05:28:10;;;;;;;11.02;1.77;;;;;;;;;;5009001;28;20034;-68
2022/12/27 05:30:36;;;;;;;8.07;1.83;;;;;;;;;;5010707;28;20028;-68
2022/12/27 05:33:01;;;;;;;10.07;1.85;;;;;;;;;;5008375;28;20018;-68
2022/12/27 05:35:27;;;;;;;11.80;1.95;;;;;;;;;;5010171;28;20057;-67
2022/12/27 05:37:53;;;;;;;5.47;1.80;;;;;;;;;;5008154;28;20024;-69
2022/12/27 05:40:18;;;;;;;15.35;2.17;;;;;;;;;;5009774;28;20309;-69
2022/12/27 05:42:43;;;;;;;12.43;1.23;;;;;;;;;;5009411;28;20026;-68
2022/12/27 05:45:08;;;;;;;8.43;2.05;;;;;;;;;;5010556;28;20268;-69
2022/12/27 05:47:33;;;;;;;7.53;1.60;;;;;;;;;;5010749;28;20053;-68
2022/12/27 05:49:59;;;;;;;7.00;1.33;;;;;;;;;;5010352;28;20097;-69
2022/12/27 05:52:24;;;;;;;14.00;1.90;;;;;;;;;;5009980;28;20025;-68
2022/12/27 05:54:49;;;;;;;8.07;1.38;;;;;;;;;;5009561;28;20284;-68
2022/12/27 05:57:14;;;;;;;11.20;2.08;;;;;;;;;;5007542;28;20057;-68
2022/12/27 05:59:39;;;;;;;14.15;1.92;;;;;;;;;;5009525;28;20097;-68
2022/12/27 06:02:04;;;;;;;12.70;2.15;;;;;;;;;;5010920;28;20433;-68
2022/12/27 06:04:30;;;;;;;2.50;0.73;;;;;;;;;;5008033;28;20029;-69
2022/12/27 06:06:55;;;;;;;17.67;2.83;;;;;;;;;;5008520;28;20017;-68
2022/12/27 06:09:20;;;;;;;13.20;1.77;;;;;;;;;;5010345;28;20022;-69
2022/12/27 06:11:45;;;;;;;5.75;1.45;;;;;;;;;;5009996;28;20490;-68
2022/12/27 06:14:10;;;;;;;16.60;2.08;;;;;;;;;;5010006;28;20037;-69
2022/12/27 06:16:36;;;;;;;9.57;1.85;;;;;;;;;;5007419;28;20030;-68
2022/12/27 06:19:01;;;;;;;14.10;2.17;;;;;;;;;;5008229;28;20014;-69
2022/12/27 06:21:26;;;;;;;10.38;1.85;;;;;;;;;;5008888;28;20502;-68
2022/12/27 06:23:51;;;;;;;16.55;2.72;;;;;;;;;;5009758;28;20026;-68
2022/12/27 06:26:18;;;;;;;12.77;2.40;;;;;;;;;;5011241;28;20033;-68
2022/12/27 06:28:43;;;;;;;11.75;2.05;;;;;;;;;;5010385;28;20022;-68
2022/12/27 06:31:09;;;;;;;7.55;1.80;;;;;;;;;;5010589;28;20562;-68
2022/12/27 06:33:34;;;;;;;12.25;2.13;;;;;;;;;;5009137;28;20057;-70
2022/12/27 06:36:04;;;;;;;9.07;2.22;;;;;;;;;;5009731;28;20022;-68
2022/12/27 06:38:29;;;;;;;13.35;1.98;;;;;;;;;;5010739;28;20525;-68
2022/12/27 06:40:59;;;;;;;10.40;1.10;;;;;;;;;;5010568;28;20110;-69
2022/12/27 06:43:24;;;;;;;12.73;2.55;;;;;;;;;;5010247;28;20750;-68
2022/12/27 06:45:56;;;;;;;12.07;1.67;;;;;;;;;;5008292;28;20069;-68
2022/12/27 06:48:21;;;;;;;12.00;2.10;;;;;;;;;;5003646;28;20045;-68
2022/12/27 06:50:46;;;;;;;10.00;1.70;;;;;;;;;;5008172;28;20057;-68
2022/12/27 06:53:11;;;;;;;14.30;1.53;;;;;;;;;;5009067;28;20084;-68
2022/12/27 06:55:37;;;;;;;3.25;1.27;;;;;;;;;;4989694;28;20277;-68
2022/12/27 06:58:02;;;;;;;15.25;2.40;;;;;;;;;;5009206;28;20014;-68
2022/12/27 07:00:27;;;;;;;15.85;2.50;;;;;;;;;;5007624;28;20029;-69
2022/12/27 07:02:52;;;;;;;8.60;1.98;;;;;;;;;;5007807;28;20028;-68
2022/12/27 07:05:17;;;;;;;11.75;2.85;;;;;;;;;;5006651;28;20150;-68
2022/12/27 07:07:42;;;;;;;7.03;1.52;;;;;;;;;;5008811;28;20462;-68
2022/12/27 07:10:08;;;;;;;12.82;2.47;;;;;;;;;;5009770;28;20072;-68
2022/12/27 07:12:33;;;;;;;8.73;1.98;;;;;;;;;;5008656;28;20025;-68
2022/12/27 07:14:58;;;;;;;13.07;3.70;;;;;;;;;;5008966;28;20029;-69
2022/12/27 07:17:23;;;;;;;15.23;1.93;;;;;;;;;;5007788;28;20642;-68
2022/12/27 07:19:49;;;;;;;14.00;2.10;;;;;;;;;;5007781;28;20358;-69
2022/12/27 07:22:14;;;;;;;17.13;2.83;;;;;;;;;;5008131;28;20083;-69
2022/12/27 07:24:39;;;;;;;25.07;2.20;;;;;;;;;;5007783;28;20277;-69
2022/12/27 07:27:04;;;;;;;16.02;2.90;;;;;;;;;;5007774;28;20825;-68
2022/12/27 07:29:30;;;;;;;11.75;1.83;;;;;;;;;;5006997;28;20033;-69
2022/12/27 07:31:55;;;;;;;5.43;1.50;;;;;;;;;;5008817;28;20049;-68
2022/12/27 07:34:20;;;;;;;8.90;1.60;;;;;;;;;;5008223;28;20030;-69
2022/12/27 07:36:46;;;;;;;9.48;2.33;;;;;;;;;;5008253;28;20044;-70
2022/12/27 07:39:11;;;;;;;8.65;1.88;;;;;;;;;;5009279;28;20030;-68
2022/12/27 07:41:37;;;;;;;8.77;2.25;;;;;;;;;;5008385;28;20018;-68
2022/12/27 07:44:02;;;;;;;15.23;1.63;;;;;;;;;;5008287;28;20018;-68
2022/12/27 07:46:28;;;;;;;15.73;1.55;;;;;;;;;;5008762;28;20022;-68
2022/12/27 07:48:54;;;;;;;17.85;2.03;;;;;;;;;;5004881;28;20026;-69
2022/12/27 07:51:19;;;;;;;15.45;4.60;;;;;;;;;;5007106;28;20546;-68
2022/12/27 07:53:46;;;;;;;8.00;2.80;;;;;;;;;;5008331;28;20033;-69
2022/12/27 07:56:22;;;;;;;7.80;1.65;;;;;;;;;;5008073;28;20124;-68
2022/12/27 07:58:48;;;;;;;11.00;2.08;;;;;;;;;;5007436;28;20117;-69
2022/12/27 08:01:15;;;;;;;8.93;1.92;;;;;;;;;;5007939;28;20444;-70
2022/12/27 08:03:40;;;;;;;10.63;1.30;;;;;;;;;;5004632;28;20018;-70
2022/12/27 08:06:06;;;;;;;9.52;2.25;;;;;;;;;;5007892;28;20021;-68
2022/12/27 08:08:39;;;;;;;19.38;2.13;;;;;;;;;;5007675;28;20053;-68
2022/12/27 08:11:04;;;;;;;23.00;2.58;;;;;;;;;;5007328;28;20513;-69
2022/12/27 08:13:29;;;;;;;24.75;3.00;;;;;;;;;;5009697;28;20030;-68
2022/12/27 08:15:54;;;;;;;16.52;2.22;;;;;;;;;;5007711;28;20030;-68
2022/12/27 08:18:20;;;;;;;16.63;2.08;;;;;;;;;;5007461;28;20507;-68
2022/12/27 08:20:45;;;;;;;31.80;6.32;;;;;;;;;;5006293;28;20704;-70
2022/12/27 08:23:10;;;;;;;8.05;2.17;;;;;;;;;;5005547;28;20030;-69
2022/12/27 08:25:35;;;;;;;13.82;2.35;;;;;;;;;;4987962;28;20018;-68
2022/12/27 08:28:01;;;;;;;10.38;2.20;;;;;;;;;;5006360;28;20037;-69
2022/12/27 08:30:26;;;;;;;12.93;1.92;;;;;;;;;;5009315;28;20046;-68
2022/12/27 08:32:51;;;;;;;9.73;2.07;;;;;;;;;;5005270;28;20037;-69
2022/12/27 08:35:17;;;;;;;17.60;2.80;;;;;;;;;;5003639;28;20287;-68
2022/12/27 08:37:42;;;;;;;22.83;2.57;;;;;;;;;;5013330;23;20314;-70
2022/12/27 08:40:07;;;;;;;7.30;2.00;;;;;;;;;;4988574;28;20266;-74
2022/12/27 08:42:32;;;;;;;21.40;4.25;;;;;;;;;;4989709;28;20418;-74
2022/12/27 08:44:57;;;;;;;12.25;3.03;;;;;;;;;;4988118;28;20025;-72
2022/12/27 08:47:23;;;;;;;16.40;2.72;;;;;;;;;;4989723;28;20026;-71
2022/12/27 08:49:48;;;;;;;18.00;3.28;;;;;;;;;;4988045;28;20501;-72
2022/12/27 08:52:13;;;;;;;8.90;2.47;;;;;;;;;;4971241;28;20034;-72
2022/12/27 08:54:38;;;;;;;10.95;2.75;;;;;;;;;;4989251;28;20275;-72
2022/12/27 08:57:04;;;;;;;11.40;2.90;;;;;;;;;;4989146;28;20011;-72
2022/12/27 08:59:29;;;;;;;7.97;2.40;;;;;;;;;;4987858;28;20022;-72
2022/12/27 09:01:54;;;;;;;18.47;3.10;;;;;;;;;;4991095;28;20018;-72
2022/12/27 09:04:19;;;;;;;9.50;2.00;;;;;;;;;;4992742;28;20269;-73
2022/12/27 09:06:45;;;;;;;5.63;1.52;;;;;;;;;;4993695;28;20030;-72
2022/12/27 09:09:10;;;;;;;13.40;2.67;;;;;;;;;;4969742;28;20052;-71
2022/12/27 09:11:35;;;;;;;19.30;4.43;;;;;;;;;;4989683;28;20037;-72
2022/12/27 09:14:01;;;;;;;22.83;3.15;;;;;;;;;;4990001;28;20627;-72
2022/12/27 09:16:26;;;;;;;13.93;3.00;;;;;;;;;;4990757;28;20422;-72
2022/12/27 09:18:52;;;;;;;9.70;2.53;;;;;;;;;;4991233;28;20030;-73
2022/12/27 09:21:19;;;;;;;8.02;2.30;;;;;;;;;;4990730;28;20058;-75
2022/12/27 09:23:44;;;;;;;8.80;2.28;;;;;;;;;;4989072;28;20022;-73
2022/12/27 09:26:14;;;;;;;9.38;2.20;;;;;;;;;;4991002;28;20077;-73
2022/12/27 09:28:40;;;;;;;11.80;2.03;;;;;;;;;;4990252;28;20061;-73
2022/12/27 09:31:06;;;;;;;16.42;2.83;;;;;;;;;;4991812;28;20487;-73
2022/12/27 09:33:32;;;;;;;10.68;3.00;;;;;;;;;;4990397;28;20030;-73
2022/12/27 09:36:07;;;;;;;17.83;2.92;;;;;;;;;;4990189;28;20505;-72
2022/12/27 09:38:33;;;;;;;22.80;3.42;;;;;;;;;;4990716;28;20030;-72
2022/12/27 09:40:59;;;;;;;8.88;1.95;;;;;;;;;;4987563;28;20026;-73
2022/12/27 09:43:32;;;;;;;9.48;2.30;;;;;;;;;;4990180;28;20018;-72
2022/12/27 09:45:58;;;;;;;11.50;2.75;;;;;;;;;;4987333;28;20035;-72
2022/12/27 09:48:23;;;;;;;14.07;2.30;;;;;;;;;;4991459;28;20109;-73
2022/12/27 09:50:51;;;;;;;7.97;2.00;;;;;;;;;;4989582;28;20149;-73
2022/12/27 09:53:21;;;;;;;3.80;1.35;;;;;;;;;;4990786;28;20277;-73
2022/12/27 09:55:51;;;;;;;10.85;2.42;;;;;;;;;;4985931;28;20078;-72
2022/12/27 09:58:16;;;;;;;13.82;2.83;;;;;;;;;;4989056;28;20237;-72
2022/12/27 10:00:44;;;;;;;13.67;1.83;;;;;;;;;;4972619;28;20143;-71
2022/12/27 10:03:10;;;;;;;11.27;2.17;;;;;;;;;;4988185;28;20273;-72
2022/12/27 10:05:36;;;;;;;10.27;1.85;;;;;;;;;;4989083;28;20026;-73
2022/12/27 10:08:01;;;;;;;16.92;2.55;;;;;;;;;;4987127;28;20010;-73
2022/12/27 10:10:46;;;;;;;11.93;1.52;;;;;;;;;;4971008;28;20019;-73
2022/12/27 10:13:20;;;;;;;17.98;2.38;;;;;;;;;;4987844;28;20027;-73
2022/12/27 10:16:04;;;;;;;2.03;1.23;;;;;;;;;;4990839;28;20057;-72
2022/12/27 10:18:32;;;;;;;17.42;2.70;;;;;;;;;;4979224;28;20022;-72
2022/12/27 10:21:00;;;;;;;11.77;2.08;;;;;;;;;;4987025;28;20023;-73
2022/12/27 10:23:31;;;;;;;12.57;2.17;;;;;;;;;;4985147;28;20368;-73
2022/12/27 10:25:58;;;;;;;14.15;2.20;;;;;;;;;;4988192;28;20502;-73
2022/12/27 10:28:27;;;;;;;19.55;2.97;;;;;;;;;;4981950;28;20026;-73
2022/12/27 10:30:53;;;;;;;14.15;2.38;;;;;;;;;;4984110;28;20014;-73
2022/12/27 10:33:19;;;;;;;4.15;1.48;;;;;;;;;;4982838;28;20497;-73
2022/12/27 10:35:56;;;;;;;15.80;2.85;;;;;;;;;;4975427;28;20109;-73
2022/12/27 10:38:23;;;;;;;8.95;1.88;;;;;;;;;;4971342;28;20049;-73
2022/12/27 10:41:02;;;;;;;16.50;1.92;;;;;;;;;;4978580;28;20023;-72
2022/12/27 10:43:35;;;;;;;17.52;2.60;;;;;;;;;;4988421;28;20578;-72
2022/12/27 10:46:19;;;;;;;8.20;1.85;;;;;;;;;;4970098;28;20109;-72
2022/12/27 10:49:01;;;;;;;10.05;2.30;;;;;;;;;;4972265;28;20018;-72
2022/12/27 10:51:38;;;;;;;15.07;2.95;;;;;;;;;;4955568;28;20103;-72
2022/12/27 10:54:10;;;;;;;7.78;2.10;;;;;;;;;;4987176;28;20566;-72
2022/12/27 10:56:57;;;;;;;3.53;1.92;;;;;;;;;;4987051;28;20059;-72
2022/12/27 11:00:04;;;;;;;6.90;1.70;;;;;;;;;;4983439;28;20022;-73
2022/12/27 11:02:59;;;;;;;10.23;3.30;;;;;;;;;;4980510;28;20022;-73
2022/12/27 11:08:58;;;;;;;14.18;3.15;;;;;;;;;;4941206;28;20042;-73
2022/12/27 11:11:46;;;;;;;3.80;1.38;;;;;;;;;;4871939;29;20029;-71
2022/12/27 11:14:40;;;;;;;7.22;2.05;;;;;;;;;;4939779;28;20395;-73
2022/12/27 11:18:03;;;;;;;14.02;2.50;;;;;;;;;;4914659;29;20036;-73
2022/12/27 11:21:12;;;;;;;10.43;1.80;;;;;;;;;;4943815;28;20106;-73
2022/12/27 11:24:19;;;;;;;9.00;1.83;;;;;;;;;;4952979;28;20033;-72
2022/12/27 11:27:17;;;;;;;6.82;1.20;;;;;;;;;;4975441;28;20036;-72
2022/12/27 11:30:11;;;;;;;11.63;1.73;;;;;;;;;;4971777;28;20483;-71
2022/12/27 11:35:50;;;;;;;9.75;1.58;;;;;;;;;;4949152;29;20310;-73
2022/12/27 11:41:57;;;;;;;8.45;3.03;;;;;;;;;;4889033;29;20555;-73
2022/12/27 11:45:04;;;;;;;5.40;1.45;;;;;;;;;;4857384;29;20025;-73
2022/12/27 11:51:26;;;;;;;9.15;1.50;;;;;;;;;;4838161;29;20714;-73
2022/12/27 11:54:28;;;;;;;13.25;2.55;;;;;;;;;;4835316;29;20082;-72
2022/12/27 11:57:28;;;;;;;12.25;1.75;;;;;;;;;;4850957;29;20034;-71
2022/12/27 12:00:41;;;;;;;15.82;3.13;;;;;;;;;;4853411;29;20064;-73
2022/12/27 12:03:48;;;;;;;12.13;2.08;;;;;;;;;;4858766;29;20052;-73
2022/12/27 12:12:43;;;;;;;8.27;1.65;;;;;;;;;;4885364;29;20035;-72
2022/12/27 12:15:48;;;;;;;9.45;1.52;;;;;;;;;;4896708;29;20035;-72
2022/12/27 12:18:48;;;;;;;17.83;2.50;;;;;;;;;;4904988;29;20039;-72
2022/12/27 12:21:44;;;;;;;11.95;1.15;;;;;;;;;;4905907;29;20101;-72
2022/12/27 12:24:35;;;;;;;12.80;1.63;;;;;;;;;;4942581;28;20031;-73
2022/12/27 12:27:17;;;;;;;8.13;1.73;;;;;;;;;;4969170;28;20094;-73
2022/12/27 12:29:57;;;;;;;6.17;1.40;;;;;;;;;;4988584;28;20054;-72
2022/12/27 12:32:36;;;;;;;7.00;1.30;;;;;;;;;;4989768;28;20755;-72
2022/12/27 12:35:10;;;;;;;13.90;1.40;;;;;;;;;;4992553;28;20490;-72
2022/12/27 12:37:54;;;;;;;9.95;2.15;;;;;;;;;;4987001;28;20069;-72
2022/12/27 12:40:28;;;;;;;9.55;1.63;;;;;;;;;;4989910;28;20061;-71
2022/12/27 12:43:12;;;;;;;4.97;1.33;;;;;;;;;;4982360;28;21040;-72
2022/12/27 12:45:40;;;;;;;6.15;1.23;;;;;;;;;;4978844;28;20023;-74
2022/12/27 12:48:05;;;;;;;10.15;1.27;;;;;;;;;;4965051;28;21808;-71
2022/12/27 12:50:56;;;;;;;7.93;1.40;;;;;;;;;;4975158;28;20018;-72
2022/12/27 12:53:22;;;;;;;10.68;1.42;;;;;;;;;;4971354;28;20548;-73
2022/12/27 12:55:50;;;;;;;7.28;1.67;;;;;;;;;;4965656;28;20053;-73
2022/12/27 12:58:28;;;;;;;7.15;1.48;;;;;;;;;;4980075;28;20030;-73
2022/12/27 13:01:23;;;;;;;5.93;1.23;;;;;;;;;;4970374;28;20109;-73
2022/12/27 13:03:55;;;;;;;10.93;1.45;;;;;;;;;;4933441;28;20111;-72
2022/12/27 13:06:26;;;;;;;11.05;1.10;;;;;;;;;;4973093;28;20026;-71
2022/12/27 13:09:03;;;;;;;6.40;1.88;;;;;;;;;;4969022;28;20029;-71
2022/12/27 13:11:55;;;;;;;3.65;1.02;;;;;;;;;;4973649;28;20022;-73
2022/12/27 13:14:20;;;;;;;10.13;1.77;;;;;;;;;;4964765;28;20042;-71
2022/12/27 13:16:58;;;;;;;10.48;1.52;;;;;;;;;;4989849;28;20546;-71
2022/12/27 13:19:27;;;;;;;4.50;1.33;;;;;;;;;;4970765;28;20109;-71
2022/12/27 13:21:58;;;;;;;6.00;1.60;;;;;;;;;;4987067;28;20033;-71
2022/12/27 13:24:42;;;;;;;7.78;1.88;;;;;;;;;;4980475;28;20045;-70
2022/12/27 13:27:10;;;;;;;3.72;1.38;;;;;;;;;;4983231;28;20463;-72
2022/12/27 13:29:51;;;;;;;7.50;1.55;;;;;;;;;;4974125;28;20026;-72
2022/12/27 13:32:29;;;;;;;2.38;0.57;;;;;;;;;;4988363;28;20769;-70
2022/12/27 13:35:06;;;;;;;10.27;1.65;;;;;;;;;;4985548;28;20681;-73
2022/12/27 13:37:34;;;;;;;7.90;1.65;;;;;;;;;;4966841;28;20030;-73
2022/12/27 13:40:09;;;;;;;14.93;1.65;;;;;;;;;;4968130;28;20045;-73
2022/12/27 13:43:08;;;;;;;12.60;1.88;;;;;;;;;;4976796;28;20154;-72
2022/12/27 13:52:39;;;;;;;10.80;1.35;;;;;;;;;;4954867;28;20031;-72
2022/12/27 13:56:11;;;;;;;9.88;1.30;;;;;;;;;;4856379;29;20155;-72
2022/12/27 14:05:20;;;;;;;12.65;1.42;;;;;;;;;;4868321;29;20024;-72
2022/12/27 14:17:16;;;;;;;18.55;1.88;;;;;;;;;;4888571;29;20036;-71
2022/12/27 14:20:09;;;;;;;13.98;3.05;;;;;;;;;;4878019;29;20017;-73
2022/12/27 14:23:14;;;;;;;;;;;;;;;;;;;;;
2022/12/27 14:26:10;;;;;;;12.57;1.50;;;;;;;;;;4945548;28;20026;-73
2022/12/27 14:29:04;;;;;;;;;;;;;;;;;;;;;
2022/12/27 14:31:45;;;;;;;;;;;;;;;;;;;;;
2022/12/27 14:34:16;;;;;;;8.52;1.90;;;;;;;;;;4955525;28;20038;-73
2022/12/27 14:36:45;;;;;;;11.18;1.55;;;;;;;;;;4971255;28;20105;-72
2022/12/27 14:39:19;;;;;;;9.15;1.55;;;;;;;;;;4985020;28;20113;-72
2022/12/27 15:03:51;;;;;;;5.07;1.27;;;;;;;;;;4909585;29;20063;-73
2022/12/27 15:07:00;;;;;;;6.65;1.95;;;;;;;;;;4889273;29;20502;-72
2022/12/27 15:10:03;;;;;;;12.30;1.98;;;;;;;;;;4857853;29;20049;-72
2022/12/27 15:13:01;;;;;;;4.07;0.93;;;;;;;;;;4855833;29;20041;-73
2022/12/27 15:25:15;;;;;;;4.05;1.65;;;;;;;;;;4875129;29;20024;-73
2022/12/27 15:28:08;;;;;;;8.43;1.70;;;;;;;;;;4830716;29;20033;-71
2022/12/27 15:30:34;;;;;;;4.70;1.65;;;;;;;;;;4873790;29;20032;-72
2022/12/27 15:33:10;;;;;;;3.53;1.35;;;;;;;;;;4932579;28;20027;-72
2022/12/27 15:35:55;;;;;;;5.75;0.98;;;;;;;;;;4962800;28;20086;-72
2022/12/27 15:38:35;;;;;;;9.70;1.00;;;;;;;;;;4985005;28;20030;-72
2022/12/27 15:41:03;;;;;;;2.50;0.82;;;;;;;;;;4983632;28;20019;-72
2022/12/27 15:43:47;;;;;;;4.25;1.17;;;;;;;;;;4986452;28;20391;-72
2022/12/27 15:46:16;;;;;;;7.38;1.45;;;;;;;;;;4988216;28;20042;-72
2022/12/27 15:48:45;;;;;;;9.02;1.70;;;;;;;;;;4969654;28;20018;-72
2022/12/27 15:51:23;;;;;;;3.83;1.02;;;;;;;;;;4969429;28;20057;-72
2022/12/27 15:54:05;;;;;;;7.55;2.35;;;;;;;;;;4970503;28;20022;-72
2022/12/27 15:56:55;;;;;;;6.15;2.13;;;;;;;;;;4958438;28;20019;-73
2022/12/27 15:59:32;;;;;;;8.40;2.00;;;;;;;;;;4967795;28;20158;-73
2022/12/27 16:02:16;;;;;;;8.88;1.17;;;;;;;;;;4981955;28;20034;-72
2022/12/27 16:04:44;;;;;;;8.95;1.92;;;;;;;;;;4967123;28;20014;-72
2022/12/27 16:07:28;;;;;;;12.60;1.63;;;;;;;;;;4966899;28;20107;-73
2022/12/27 16:09:54;;;;;;;5.18;1.55;;;;;;;;;;4981951;28;20478;-72
2022/12/27 16:12:51;;;;;;;9.20;1.92;;;;;;;;;;4985397;28;20040;-72
2022/12/27 16:15:36;;;;;;;10.82;1.50;;;;;;;;;;4927606;28;20052;-73
2022/12/27 16:18:03;;;;;;;9.05;2.05;;;;;;;;;;4983002;28;20046;-72
2022/12/27 16:20:29;;;;;;;11.73;1.92;;;;;;;;;;4966495;28;20133;-72
2022/12/27 16:22:56;;;;;;;8.15;2.10;;;;;;;;;;4968233;28;20030;-71
2022/12/27 16:25:39;;;;;;;11.40;1.80;;;;;;;;;;4987471;28;20030;-72
2022/12/27 16:28:23;;;;;;;1.77;0.88;;;;;;;;;;4968751;28;20018;-71
2022/12/27 16:30:49;;;;;;;6.20;1.80;;;;;;;;;;4984212;28;20023;-72
2022/12/27 16:33:38;;;;;;;7.30;1.33;;;;;;;;;;4985244;28;20517;-72
2022/12/27 16:36:05;;;;;;;5.22;1.55;;;;;;;;;;4974716;28;20101;-71
2022/12/27 16:38:32;;;;;;;8.13;1.40;;;;;;;;;;4983742;28;20026;-72
2022/12/27 16:41:11;;;;;;;4.47;1.15;;;;;;;;;;4982526;28;20026;-72
2022/12/27 16:43:44;;;;;;;4.57;0.75;;;;;;;;;;4985680;28;20051;-72
2022/12/27 16:46:32;;;;;;;7.05;1.50;;;;;;;;;;4987029;28;20210;-72
2022/12/27 16:49:16;;;;;;;6.15;1.85;;;;;;;;;;4940069;28;20437;-72
2022/12/27 16:51:41;;;;;;;9.25;2.13;;;;;;;;;;4985451;28;20026;-72
2022/12/27 16:54:12;;;;;;;7.80;1.37;;;;;;;;;;4983435;28;20030;-72
2022/12/27 16:56:40;;;;;;;10.43;1.83;;;;;;;;;;4986773;28;20299;-72
2022/12/27 16:59:25;;;;;;;2.22;1.08;;;;;;;;;;4968694;28;20077;-71
2022/12/27 17:01:51;;;;;;;5.65;1.42;;;;;;;;;;4984528;28;20070;-72
2022/12/27 17:04:57;;;;;;;6.65;1.70;;;;;;;;;;4969290;28;20054;-71
2022/12/27 17:07:39;;;;;;;1.98;0.85;;;;;;;;;;4887227;29;20073;-73
2022/12/27 17:10:23;;;;;;;9.90;2.60;;;;;;;;;;4888710;29;20025;-73
2022/12/27 17:12:51;;;;;;;11.82;2.72;;;;;;;;;;4953420;28;20030;-73
2022/12/27 17:15:16;;;;;;;10.10;3.75;;;;;;;;;;4983463;28;20116;-73
2022/12/27 17:17:45;;;;;;;7.82;2.08;;;;;;;;;;4983861;28;20050;-71
2022/12/27 17:20:13;;;;;;;7.55;3.05;;;;;;;;;;4986201;28;20026;-73
2022/12/27 17:22:40;;;;;;;19.20;4.63;;;;;;;;;;4988503;28;20086;-73
2022/12/27 17:25:13;;;;;;;4.50;1.77;;;;;;;;;;4988155;28;21604;-73
2022/12/27 17:27:55;;;;;;;10.00;1.95;;;;;;;;;;4988823;28;20026;-72
2022/12/27 17:30:22;;;;;;;5.95;2.15;;;;;;;;;;4981590;28;20030;-73
2022/12/27 17:32:59;;;;;;;10.13;3.08;;;;;;;;;;4987897;28;20018;-72
2022/12/27 17:36:00;;;;;;;3.28;1.95;;;;;;;;;;4984475;28;20096;-72
2022/12/27 17:38:31;;;;;;;7.28;3.08;;;;;;;;;;4984866;28;20407;-73
2022/12/27 17:44:37;;;;;;;3.60;1.17;;;;;;;;;;4986326;28;20037;-73
2022/12/27 17:47:21;;;;;;;7.32;1.30;;;;;;;;;;4969982;28;20042;-73
2022/12/27 17:49:49;;;;;;;5.10;1.67;;;;;;;;;;4986656;28;20026;-72
2022/12/27 17:58:02;;;;;;;2.53;1.15;;;;;;;;;;4986298;28;20398;-72
2022/12/27 18:00:35;;;;;;;6.95;2.55;;;;;;;;;;4963745;28;20121;-74
2022/12/27 18:03:06;;;;;;;5.45;2.42;;;;;;;;;;4969186;28;20030;-73
2022/12/27 18:05:49;;;;;;;3.53;1.35;;;;;;;;;;4990190;28;20024;-74
2022/12/27 18:08:24;;;;;;;5.93;1.70;;;;;;;;;;4988719;28;20034;-72
2022/12/27 18:11:18;;;;;;;7.78;1.50;;;;;;;;;;4983917;28;20035;-72
2022/12/27 18:13:59;;;;;;;3.08;1.23;;;;;;;;;;4966651;28;20085;-73
2022/12/27 18:16:30;;;;;;;9.07;1.98;;;;;;;;;;4960877;28;20026;-73
2022/12/27 18:19:01;;;;;;;8.45;2.65;;;;;;;;;;4987697;28;20037;-72